Time;durP1;ratioP1;P1;durP2;ratioP2;P2;SDS_P1;SDS_P2;PMS_P1;PMS_P2;Temp;Humidity;BMP_temperature;BMP_pressure;BME280_temperature;BME280_humidity;BME280_pressure;Samples;Min_cycle;Max_cycle;Signal;HPM_P1;HPM_P2
2022/11/09 00:02:09;;;;;;;6.17;2.37;;;;;;;;;;5069857;28;20053;-62
2022/11/09 00:04:35;;;;;;;6.80;2.27;;;;;;;;;;5069435;28;20507;-62
2022/11/09 00:07:01;;;;;;;6.80;1.93;;;;;;;;;;5069623;28;20059;-63
2022/11/09 00:09:27;;;;;;;7.87;2.17;;;;;;;;;;5069761;28;20045;-63
2022/11/09 00:11:54;;;;;;;10.97;1.80;;;;;;;;;;5069114;28;20060;-62
2022/11/09 00:14:20;;;;;;;6.00;2.00;;;;;;;;;;5061903;28;20525;-62
2022/11/09 00:16:46;;;;;;;6.83;1.90;;;;;;;;;;5064114;28;20047;-62
2022/11/09 00:19:12;;;;;;;7.83;2.00;;;;;;;;;;5069365;28;20155;-63
2022/11/09 00:21:38;;;;;;;8.27;1.50;;;;;;;;;;5062653;28;20165;-62
2022/11/09 00:24:05;;;;;;;5.60;1.90;;;;;;;;;;5060008;28;20044;-62
2022/11/09 00:26:31;;;;;;;11.23;2.47;;;;;;;;;;5069486;28;20051;-62
2022/11/09 00:28:57;;;;;;;7.47;2.60;;;;;;;;;;5068834;28;20414;-62
2022/11/09 00:31:24;;;;;;;8.77;2.47;;;;;;;;;;5068078;28;20078;-63
2022/11/09 00:33:54;;;;;;;6.90;2.80;;;;;;;;;;5069228;28;20037;-63
2022/11/09 00:36:22;;;;;;;7.13;1.90;;;;;;;;;;5067483;28;20040;-62
2022/11/09 00:38:49;;;;;;;8.07;2.10;;;;;;;;;;5067905;28;20135;-63
2022/11/09 00:41:16;;;;;;;8.83;2.17;;;;;;;;;;5054089;28;20487;-62
2022/11/09 00:43:42;;;;;;;5.53;1.70;;;;;;;;;;5031483;28;20049;-62
2022/11/09 00:46:08;;;;;;;9.37;3.00;;;;;;;;;;5049554;28;20164;-63
2022/11/09 00:48:34;;;;;;;8.60;2.03;;;;;;;;;;5047767;28;20049;-62
2022/11/09 00:51:00;;;;;;;14.53;2.60;;;;;;;;;;5054815;28;20040;-62
2022/11/09 00:53:27;;;;;;;6.20;2.00;;;;;;;;;;5068561;28;20052;-62
2022/11/09 00:55:54;;;;;;;7.63;2.03;;;;;;;;;;5068998;28;20048;-62
2022/11/09 00:58:20;;;;;;;6.53;2.43;;;;;;;;;;5068982;28;20094;-62
2022/11/09 01:00:46;;;;;;;6.13;1.90;;;;;;;;;;5066492;28;20043;-62
2022/11/09 01:03:12;;;;;;;8.03;2.33;;;;;;;;;;5048151;28;20041;-62
2022/11/09 01:05:39;;;;;;;6.83;2.30;;;;;;;;;;5059976;28;20051;-62
2022/11/09 01:08:06;;;;;;;10.77;2.30;;;;;;;;;;5069110;28;20044;-62
2022/11/09 01:10:32;;;;;;;8.20;2.13;;;;;;;;;;5068783;28;20044;-63
2022/11/09 01:12:58;;;;;;;7.70;2.20;;;;;;;;;;5068595;28;20048;-62
2022/11/09 01:15:25;;;;;;;8.10;1.80;;;;;;;;;;5067513;28;20047;-62
2022/11/09 01:17:51;;;;;;;6.43;2.00;;;;;;;;;;5049983;28;20048;-62
2022/11/09 01:20:17;;;;;;;8.30;2.10;;;;;;;;;;5048653;28;20056;-63
2022/11/09 01:22:43;;;;;;;5.53;2.00;;;;;;;;;;5048577;28;20124;-62
2022/11/09 01:25:09;;;;;;;5.13;1.70;;;;;;;;;;5048253;28;20044;-62
2022/11/09 01:27:35;;;;;;;7.53;2.27;;;;;;;;;;5048762;28;20061;-63
2022/11/09 01:30:02;;;;;;;6.50;2.37;;;;;;;;;;5048581;28;20098;-62
2022/11/09 01:32:31;;;;;;;10.40;2.00;;;;;;;;;;5048551;28;20461;-62
2022/11/09 01:34:57;;;;;;;7.83;2.33;;;;;;;;;;5047887;28;20045;-62
2022/11/09 01:37:23;;;;;;;3.53;1.77;;;;;;;;;;5049384;28;20392;-62
2022/11/09 01:39:49;;;;;;;7.27;2.30;;;;;;;;;;5048538;28;20491;-62
2022/11/09 01:42:21;;;;;;;6.23;1.97;;;;;;;;;;5048410;28;20159;-63
2022/11/09 01:44:47;;;;;;;4.43;1.93;;;;;;;;;;5048466;28;20045;-63
2022/11/09 01:47:17;;;;;;;6.27;2.00;;;;;;;;;;5048111;28;20049;-62
2022/11/09 01:49:52;;;;;;;6.63;1.97;;;;;;;;;;5048176;28;20049;-62
2022/11/09 01:52:35;;;;;;;11.43;2.87;;;;;;;;;;5048453;28;20127;-62
2022/11/09 01:55:03;;;;;;;9.55;2.35;;;;;;;;;;5054184;28;20048;-62
2022/11/09 01:57:31;;;;;;;9.43;2.37;;;;;;;;;;5062215;28;20049;-62
2022/11/09 02:00:01;;;;;;;11.10;2.50;;;;;;;;;;5048510;28;20474;-63
2022/11/09 02:02:27;;;;;;;9.40;2.60;;;;;;;;;;5049427;28;20059;-63
2022/11/09 02:05:00;;;;;;;7.33;2.00;;;;;;;;;;5048616;28;20529;-63
2022/11/09 02:07:26;;;;;;;7.73;2.30;;;;;;;;;;5048028;28;20700;-61
2022/11/09 02:10:01;;;;;;;11.30;2.10;;;;;;;;;;5054894;28;20986;-61
2022/11/09 02:12:28;;;;;;;8.13;2.70;;;;;;;;;;5066129;28;20430;-61
2022/11/09 02:14:55;;;;;;;7.40;1.93;;;;;;;;;;5070645;28;20048;-61
2022/11/09 02:17:21;;;;;;;6.63;2.07;;;;;;;;;;5071616;28;20049;-61
2022/11/09 02:19:47;;;;;;;11.43;2.17;;;;;;;;;;5071405;28;20494;-61
2022/11/09 02:22:13;;;;;;;6.67;2.03;;;;;;;;;;5061749;28;20056;-61
2022/11/09 02:24:40;;;;;;;9.40;2.57;;;;;;;;;;5071534;28;20059;-61
2022/11/09 02:27:08;;;;;;;7.07;1.77;;;;;;;;;;5072027;28;20051;-62
2022/11/09 02:29:39;;;;;;;8.07;2.00;;;;;;;;;;5071376;28;20533;-61
2022/11/09 02:32:09;;;;;;;9.83;2.97;;;;;;;;;;5069562;28;20044;-61
2022/11/09 02:34:35;;;;;;;8.00;2.10;;;;;;;;;;5071051;28;20123;-61
2022/11/09 02:37:01;;;;;;;9.90;2.73;;;;;;;;;;5068293;28;20049;-61
2022/11/09 02:39:28;;;;;;;8.23;2.73;;;;;;;;;;5057371;28;20058;-61
2022/11/09 02:42:02;;;;;;;6.30;2.23;;;;;;;;;;5071319;28;20513;-61
2022/11/09 02:44:29;;;;;;;12.17;2.50;;;;;;;;;;5070658;28;20052;-61
2022/11/09 02:46:55;;;;;;;11.53;2.27;;;;;;;;;;5062109;28;20041;-61
2022/11/09 02:49:22;;;;;;;12.13;2.77;;;;;;;;;;5051241;28;20052;-61
2022/11/09 02:51:48;;;;;;;11.43;2.80;;;;;;;;;;5050933;28;20043;-61
2022/11/09 02:54:14;;;;;;;5.57;2.00;;;;;;;;;;5051201;28;20045;-61
2022/11/09 02:56:40;;;;;;;10.23;2.30;;;;;;;;;;5051109;28;20048;-61
2022/11/09 02:59:06;;;;;;;10.43;2.60;;;;;;;;;;5050629;28;20063;-62
2022/11/09 03:01:32;;;;;;;11.13;2.63;;;;;;;;;;5051224;28;20037;-61
2022/11/09 03:03:58;;;;;;;10.30;1.97;;;;;;;;;;5049742;28;20045;-62
2022/11/09 03:06:33;;;;;;;18.43;3.90;;;;;;;;;;5050877;28;20051;-62
2022/11/09 03:09:00;;;;;;;8.70;2.00;;;;;;;;;;5051025;28;20102;-62
2022/11/09 03:11:26;;;;;;;8.43;1.90;;;;;;;;;;5051108;28;20044;-61
2022/11/09 03:13:52;;;;;;;13.23;2.20;;;;;;;;;;5050645;28;20055;-62
2022/11/09 03:16:19;;;;;;;9.30;2.40;;;;;;;;;;5050089;28;20646;-62
2022/11/09 03:18:45;;;;;;;14.47;2.43;;;;;;;;;;5050303;28;20122;-61
2022/11/09 03:21:11;;;;;;;7.97;2.20;;;;;;;;;;5058871;28;20549;-61
2022/11/09 03:23:37;;;;;;;8.43;1.70;;;;;;;;;;5070353;28;20058;-61
2022/11/09 03:26:03;;;;;;;11.87;2.27;;;;;;;;;;5070209;28;20048;-61
2022/11/09 03:28:29;;;;;;;13.43;3.43;;;;;;;;;;5070514;28;20049;-62
2022/11/09 03:30:55;;;;;;;10.87;2.60;;;;;;;;;;5069245;28;20571;-62
2022/11/09 03:33:21;;;;;;;7.23;2.50;;;;;;;;;;5069872;28;20537;-61
2022/11/09 03:35:47;;;;;;;10.83;2.13;;;;;;;;;;5070268;28;20577;-62
2022/11/09 03:38:13;;;;;;;8.93;2.27;;;;;;;;;;5070594;28;20056;-61
2022/11/09 03:40:40;;;;;;;9.47;2.17;;;;;;;;;;5066266;28;20384;-61
2022/11/09 03:43:06;;;;;;;6.53;1.80;;;;;;;;;;5049852;28;20094;-62
2022/11/09 03:45:32;;;;;;;8.30;2.27;;;;;;;;;;5050529;28;20049;-61
2022/11/09 03:47:59;;;;;;;7.17;2.10;;;;;;;;;;5065552;28;20045;-61
2022/11/09 03:50:28;;;;;;;7.93;1.83;;;;;;;;;;5067634;28;20056;-62
2022/11/09 03:52:55;;;;;;;10.23;2.07;;;;;;;;;;5069616;28;20045;-61
2022/11/09 03:55:21;;;;;;;10.93;2.17;;;;;;;;;;5070141;28;20509;-61
2022/11/09 03:57:47;;;;;;;6.30;2.03;;;;;;;;;;5068466;28;20044;-62
2022/11/09 04:00:15;;;;;;;7.43;2.13;;;;;;;;;;5066005;28;20106;-61
2022/11/09 04:02:41;;;;;;;8.13;2.20;;;;;;;;;;5069898;28;20048;-62
2022/11/09 04:05:07;;;;;;;5.97;1.70;;;;;;;;;;5069658;28;20064;-61
2022/11/09 04:07:33;;;;;;;8.03;2.17;;;;;;;;;;5069505;28;20045;-62
2022/11/09 04:10:00;;;;;;;13.70;2.30;;;;;;;;;;5069519;28;20464;-61
2022/11/09 04:12:26;;;;;;;9.33;2.03;;;;;;;;;;5068947;28;20068;-62
2022/11/09 04:14:52;;;;;;;10.30;2.50;;;;;;;;;;5049209;28;20055;-61
2022/11/09 04:17:18;;;;;;;8.57;1.87;;;;;;;;;;5049543;28;20055;-61
2022/11/09 04:19:44;;;;;;;11.87;2.13;;;;;;;;;;5049515;28;20041;-61
2022/11/09 04:22:10;;;;;;;9.17;2.33;;;;;;;;;;5049498;28;20469;-61
2022/11/09 04:24:36;;;;;;;11.83;2.23;;;;;;;;;;5049121;28;20037;-61
2022/11/09 04:27:02;;;;;;;7.67;1.90;;;;;;;;;;5061981;28;20165;-62
2022/11/09 04:29:28;;;;;;;7.60;2.10;;;;;;;;;;5069015;28;20051;-62
2022/11/09 04:31:54;;;;;;;7.87;2.17;;;;;;;;;;5067230;28;20048;-62
2022/11/09 04:34:20;;;;;;;8.33;2.00;;;;;;;;;;5068935;28;20445;-61
2022/11/09 04:36:46;;;;;;;7.33;2.13;;;;;;;;;;5068478;28;20414;-61
2022/11/09 04:39:12;;;;;;;6.90;2.20;;;;;;;;;;5069422;28;20048;-61
2022/11/09 04:41:38;;;;;;;8.60;2.63;;;;;;;;;;5065107;28;20049;-61
2022/11/09 04:44:05;;;;;;;9.83;2.83;;;;;;;;;;5048973;28;20053;-61
2022/11/09 04:46:31;;;;;;;9.93;2.10;;;;;;;;;;5049085;28;20045;-61
2022/11/09 04:48:57;;;;;;;6.67;1.90;;;;;;;;;;5047762;28;20053;-62
2022/11/09 04:51:23;;;;;;;8.90;2.63;;;;;;;;;;5059661;28;20044;-61
2022/11/09 04:53:49;;;;;;;8.20;1.90;;;;;;;;;;5068858;28;20135;-61
2022/11/09 04:56:15;;;;;;;15.97;4.40;;;;;;;;;;5069232;28;20478;-61
2022/11/09 04:58:42;;;;;;;8.00;2.30;;;;;;;;;;5068574;28;20438;-61
2022/11/09 05:01:10;;;;;;;7.17;2.00;;;;;;;;;;5068525;28;20045;-61
2022/11/09 05:03:36;;;;;;;7.30;2.17;;;;;;;;;;5066912;28;20053;-61
2022/11/09 05:08:47;;;;;;;8.13;2.50;;;;;;;;;;5068850;28;20045;-61
2022/11/09 05:11:14;;;;;;;9.33;2.33;;;;;;;;;;5067684;28;20048;-61
2022/11/09 05:13:40;;;;;;;8.63;2.03;;;;;;;;;;5068193;28;20094;-62
2022/11/09 05:16:06;;;;;;;10.23;2.20;;;;;;;;;;5068490;28;20049;-62
2022/11/09 05:18:32;;;;;;;7.63;2.50;;;;;;;;;;5064036;28;20053;-62
2022/11/09 05:20:59;;;;;;;6.70;2.17;;;;;;;;;;5054980;28;20048;-62
2022/11/09 05:26:10;;;;;;;6.40;1.83;;;;;;;;;;5068352;28;20522;-62
2022/11/09 05:28:36;;;;;;;7.87;2.00;;;;;;;;;;5056858;28;20049;-62
2022/11/09 05:31:02;;;;;;;9.53;2.17;;;;;;;;;;5055076;28;20052;-62
2022/11/09 05:33:28;;;;;;;7.27;1.60;;;;;;;;;;5065404;28;20056;-62
2022/11/09 05:35:54;;;;;;;15.33;2.47;;;;;;;;;;5051896;28;20098;-62
2022/11/09 05:38:21;;;;;;;5.80;2.20;;;;;;;;;;5048537;28;20073;-62
2022/11/09 05:40:48;;;;;;;6.97;1.90;;;;;;;;;;5048453;28;20411;-62
2022/11/09 05:43:14;;;;;;;11.70;2.67;;;;;;;;;;5048579;28;20471;-62
2022/11/09 05:45:41;;;;;;;9.10;2.23;;;;;;;;;;5058341;28;20052;-62
2022/11/09 05:48:07;;;;;;;8.97;1.93;;;;;;;;;;5068987;28;20037;-62
2022/11/09 05:50:33;;;;;;;8.77;2.10;;;;;;;;;;5070155;28;20110;-62
2022/11/09 05:52:59;;;;;;;11.93;2.70;;;;;;;;;;5071970;28;20418;-62
2022/11/09 05:55:26;;;;;;;8.77;1.90;;;;;;;;;;5061888;28;20037;-62
2022/11/09 05:57:52;;;;;;;10.77;3.20;;;;;;;;;;5051912;28;20048;-62
2022/11/09 06:00:18;;;;;;;11.63;2.57;;;;;;;;;;5065464;28;20048;-62
2022/11/09 06:02:44;;;;;;;12.13;2.10;;;;;;;;;;5071180;28;20374;-62
2022/11/09 06:05:10;;;;;;;8.83;2.60;;;;;;;;;;5068565;28;20383;-62
2022/11/09 06:07:36;;;;;;;7.30;2.30;;;;;;;;;;5070817;28;20040;-62
2022/11/09 06:10:03;;;;;;;8.53;2.10;;;;;;;;;;5069573;28;20037;-62
2022/11/09 06:12:29;;;;;;;13.80;2.93;;;;;;;;;;5063714;28;20522;-62
2022/11/09 06:14:55;;;;;;;14.57;3.10;;;;;;;;;;5054884;28;20057;-62
2022/11/09 06:17:21;;;;;;;12.57;2.40;;;;;;;;;;5071478;28;20049;-62
2022/11/09 06:19:47;;;;;;;13.90;2.77;;;;;;;;;;5071015;28;20546;-62
2022/11/09 06:22:13;;;;;;;6.20;2.00;;;;;;;;;;5059659;28;20033;-62
2022/11/09 06:24:39;;;;;;;11.20;1.80;;;;;;;;;;5065750;28;20461;-62
2022/11/09 06:27:05;;;;;;;14.40;2.20;;;;;;;;;;5071487;28;20625;-62
2022/11/09 06:29:31;;;;;;;9.67;2.27;;;;;;;;;;5057578;28;20049;-62
2022/11/09 06:31:57;;;;;;;11.13;3.07;;;;;;;;;;5064580;28;20059;-62
2022/11/09 06:34:24;;;;;;;14.90;3.13;;;;;;;;;;5069414;28;20052;-62
2022/11/09 06:36:50;;;;;;;9.37;2.17;;;;;;;;;;5070407;28;20057;-62
2022/11/09 06:39:16;;;;;;;10.80;3.23;;;;;;;;;;5071252;28;20048;-62
2022/11/09 06:41:42;;;;;;;13.73;2.47;;;;;;;;;;5070687;28;20371;-62
2022/11/09 06:44:08;;;;;;;12.70;1.93;;;;;;;;;;5060387;28;20048;-62
2022/11/09 06:46:34;;;;;;;9.93;2.57;;;;;;;;;;5066557;28;20040;-62
2022/11/09 06:49:00;;;;;;;10.33;2.13;;;;;;;;;;5070933;28;20056;-62
2022/11/09 06:51:26;;;;;;;10.57;2.37;;;;;;;;;;5070863;28;20085;-62
2022/11/09 06:53:52;;;;;;;15.37;2.50;;;;;;;;;;5070798;28;20045;-62
2022/11/09 06:56:19;;;;;;;11.23;2.70;;;;;;;;;;5079451;28;20767;-62
2022/11/09 06:58:45;;;;;;;12.37;2.13;;;;;;;;;;5076213;28;20505;-62
2022/11/09 07:01:12;;;;;;;9.33;2.10;;;;;;;;;;5062862;28;20514;-62
2022/11/09 07:03:38;;;;;;;10.07;2.23;;;;;;;;;;5050542;28;20041;-62
2022/11/09 07:06:06;;;;;;;8.57;2.10;;;;;;;;;;5061443;28;20048;-62
2022/11/09 07:08:32;;;;;;;9.60;2.23;;;;;;;;;;5065256;28;20045;-62
2022/11/09 07:11:04;;;;;;;8.87;2.33;;;;;;;;;;5050362;28;20128;-62
2022/11/09 07:13:30;;;;;;;13.10;2.53;;;;;;;;;;5048896;28;20115;-62
2022/11/09 07:15:56;;;;;;;9.77;2.23;;;;;;;;;;5059976;28;20045;-62
2022/11/09 07:18:22;;;;;;;12.97;3.10;;;;;;;;;;5069400;28;20414;-62
2022/11/09 07:20:49;;;;;;;14.10;2.70;;;;;;;;;;5070268;28;20037;-62
2022/11/09 07:23:15;;;;;;;11.77;2.50;;;;;;;;;;5052373;28;20056;-62
2022/11/09 07:25:41;;;;;;;14.43;3.07;;;;;;;;;;5057449;28;20048;-62
2022/11/09 07:28:08;;;;;;;8.60;2.23;;;;;;;;;;5069980;28;20138;-62
2022/11/09 07:30:35;;;;;;;9.43;2.47;;;;;;;;;;5067700;28;20140;-62
2022/11/09 07:33:01;;;;;;;11.07;2.33;;;;;;;;;;5050071;28;20080;-62
2022/11/09 07:35:27;;;;;;;7.93;2.70;;;;;;;;;;5067273;28;20083;-62
2022/11/09 07:37:54;;;;;;;14.90;2.50;;;;;;;;;;5054533;28;20040;-62
2022/11/09 07:40:20;;;;;;;15.60;2.63;;;;;;;;;;5075313;28;20048;-62
2022/11/09 07:42:46;;;;;;;11.23;3.53;;;;;;;;;;5059007;28;20072;-61
2022/11/09 07:45:12;;;;;;;8.20;2.20;;;;;;;;;;5068811;28;20591;-62
2022/11/09 07:47:38;;;;;;;18.40;2.90;;;;;;;;;;5069866;28;20494;-62
2022/11/09 07:50:04;;;;;;;10.67;2.57;;;;;;;;;;5069547;28;20135;-62
2022/11/09 07:52:30;;;;;;;16.47;2.77;;;;;;;;;;5063911;28;20106;-62
2022/11/09 07:54:56;;;;;;;11.40;2.73;;;;;;;;;;5068327;28;20045;-61
2022/11/09 07:57:22;;;;;;;12.53;2.40;;;;;;;;;;5063655;28;20048;-62
2022/11/09 07:59:50;;;;;;;11.97;2.80;;;;;;;;;;5049264;28;20460;-62
2022/11/09 08:02:16;;;;;;;11.23;2.67;;;;;;;;;;5065651;28;20581;-62
2022/11/09 08:04:42;;;;;;;10.50;2.53;;;;;;;;;;5069504;28;20102;-62
2022/11/09 08:07:08;;;;;;;13.73;3.03;;;;;;;;;;5068929;28;20047;-62
2022/11/09 08:09:34;;;;;;;14.50;3.00;;;;;;;;;;5067797;28;20044;-62
2022/11/09 08:12:00;;;;;;;10.97;2.43;;;;;;;;;;5067051;28;20158;-62
2022/11/09 08:14:26;;;;;;;12.23;2.90;;;;;;;;;;5061956;28;20469;-62
2022/11/09 08:16:53;;;;;;;9.90;3.07;;;;;;;;;;5035405;28;20044;-62
2022/11/09 08:19:19;;;;;;;11.03;2.57;;;;;;;;;;5063346;28;20040;-62
2022/11/09 08:21:45;;;;;;;15.53;3.70;;;;;;;;;;5068956;28;20520;-62
2022/11/09 08:24:11;;;;;;;16.30;3.17;;;;;;;;;;5068845;28;20090;-62
2022/11/09 08:26:37;;;;;;;10.13;2.77;;;;;;;;;;5068662;28;20072;-62
2022/11/09 08:29:03;;;;;;;15.60;3.90;;;;;;;;;;5068772;28;20051;-62
2022/11/09 08:31:29;;;;;;;9.03;2.37;;;;;;;;;;5062981;28;20749;-62
2022/11/09 08:33:55;;;;;;;14.03;3.50;;;;;;;;;;5048808;28;20168;-62
2022/11/09 08:36:24;;;;;;;6.63;2.33;;;;;;;;;;5063806;28;20045;-62
2022/11/09 08:38:50;;;;;;;10.80;2.77;;;;;;;;;;5066800;28;20537;-62
2022/11/09 08:41:16;;;;;;;10.47;3.27;;;;;;;;;;5066423;28;20044;-62
2022/11/09 08:43:42;;;;;;;8.37;2.60;;;;;;;;;;5066379;28;20036;-63
2022/11/09 08:46:08;;;;;;;13.03;2.73;;;;;;;;;;5066299;28;20059;-62
2022/11/09 08:48:34;;;;;;;14.87;3.33;;;;;;;;;;5065923;28;20406;-62
2022/11/09 08:51:01;;;;;;;19.13;4.00;;;;;;;;;;5066371;28;20051;-62
2022/11/09 08:53:28;;;;;;;12.23;2.90;;;;;;;;;;5067044;28;20048;-62
2022/11/09 08:55:54;;;;;;;10.27;2.67;;;;;;;;;;5067822;28;20090;-62
2022/11/09 08:58:20;;;;;;;11.73;3.03;;;;;;;;;;5067166;28;20045;-62
2022/11/09 09:00:46;;;;;;;21.87;4.80;;;;;;;;;;5068051;28;20045;-62
2022/11/09 09:03:12;;;;;;;14.00;2.90;;;;;;;;;;5068017;28;20102;-62
2022/11/09 09:05:38;;;;;;;9.57;2.50;;;;;;;;;;5067754;28;20470;-62
2022/11/09 09:08:05;;;;;;;11.67;3.10;;;;;;;;;;5067370;28;20184;-62
2022/11/09 09:10:34;;;;;;;10.33;2.97;;;;;;;;;;5068223;28;20052;-62
2022/11/09 09:13:00;;;;;;;13.63;3.87;;;;;;;;;;5067902;28;20061;-62
2022/11/09 09:15:26;;;;;;;9.57;3.40;;;;;;;;;;5067679;28;20218;-62
2022/11/09 09:17:52;;;;;;;11.50;3.37;;;;;;;;;;5067759;28;20311;-62
2022/11/09 09:20:18;;;;;;;8.83;2.60;;;;;;;;;;5067596;28;20117;-62
2022/11/09 09:22:44;;;;;;;11.40;2.47;;;;;;;;;;5066972;28;20066;-62
2022/11/09 09:25:10;;;;;;;9.43;2.40;;;;;;;;;;5067870;28;20045;-62
2022/11/09 09:27:36;;;;;;;9.83;2.30;;;;;;;;;;5067907;28;20479;-62
2022/11/09 09:30:03;;;;;;;10.30;2.67;;;;;;;;;;5067559;28;20045;-62
2022/11/09 09:32:29;;;;;;;11.97;3.87;;;;;;;;;;5066252;28;20052;-62
2022/11/09 09:34:55;;;;;;;9.90;2.20;;;;;;;;;;5067210;28;20052;-62
2022/11/09 09:37:21;;;;;;;9.90;2.70;;;;;;;;;;5067590;28;20467;-62
2022/11/09 09:39:47;;;;;;;19.00;3.50;;;;;;;;;;5068012;28;20051;-62
2022/11/09 09:42:16;;;;;;;11.87;2.67;;;;;;;;;;5067104;28;20048;-62
2022/11/09 09:45:00;;;;;;;10.73;2.50;;;;;;;;;;5067240;28;20140;-62
2022/11/09 09:47:38;;;;;;;14.50;3.50;;;;;;;;;;5067373;28;20045;-62
2022/11/09 09:50:06;;;;;;;10.27;2.60;;;;;;;;;;5067135;28;20371;-62
2022/11/09 09:52:44;;;;;;;10.17;2.77;;;;;;;;;;5067436;28;20074;-62
2022/11/09 09:55:16;;;;;;;11.93;2.30;;;;;;;;;;5067850;28;20048;-62
2022/11/09 09:57:45;;;;;;;8.50;2.40;;;;;;;;;;5067664;28;20056;-62
2022/11/09 10:00:18;;;;;;;9.90;2.67;;;;;;;;;;5067686;28;20048;-62
2022/11/09 10:02:44;;;;;;;10.27;2.20;;;;;;;;;;5066927;28;20045;-62
2022/11/09 10:05:14;;;;;;;11.10;3.37;;;;;;;;;;5067068;28;20044;-62
2022/11/09 10:07:45;;;;;;;12.87;3.17;;;;;;;;;;5065805;28;20044;-62
2022/11/09 10:10:32;;;;;;;10.73;2.97;;;;;;;;;;5067380;28;20040;-62
2022/11/09 10:12:58;;;;;;;16.50;2.90;;;;;;;;;;5045748;28;20075;-62
2022/11/09 10:15:33;;;;;;;14.73;3.93;;;;;;;;;;5066486;28;20056;-62
2022/11/09 10:18:12;;;;;;;10.03;2.57;;;;;;;;;;5067292;28;20120;-62
2022/11/09 10:20:47;;;;;;;10.00;2.73;;;;;;;;;;5067064;28;20432;-62
2022/11/09 10:23:13;;;;;;;8.23;2.30;;;;;;;;;;5066597;28;20443;-62
2022/11/09 10:25:42;;;;;;;9.30;2.40;;;;;;;;;;5065868;28;20121;-62
2022/11/09 10:28:13;;;;;;;13.17;2.67;;;;;;;;;;5067061;28;20041;-62
2022/11/09 10:30:40;;;;;;;11.80;3.53;;;;;;;;;;5067083;28;20045;-62
2022/11/09 10:33:13;;;;;;;11.60;3.40;;;;;;;;;;5066660;28;20048;-62
2022/11/09 10:35:45;;;;;;;11.10;3.00;;;;;;;;;;5069165;28;20139;-62
2022/11/09 10:38:17;;;;;;;10.00;2.37;;;;;;;;;;5070560;28;20083;-62
2022/11/09 10:40:55;;;;;;;11.13;2.60;;;;;;;;;;5070270;28;20071;-62
2022/11/09 10:43:23;;;;;;;15.27;2.60;;;;;;;;;;5070307;28;20048;-62
2022/11/09 10:45:58;;;;;;;8.83;2.27;;;;;;;;;;5070083;28;20044;-63
2022/11/09 10:48:37;;;;;;;9.60;3.40;;;;;;;;;;5070366;28;20045;-63
2022/11/09 10:51:04;;;;;;;9.83;2.33;;;;;;;;;;5070344;28;20090;-63
2022/11/09 10:53:32;;;;;;;12.23;3.03;;;;;;;;;;5069896;28;20052;-63
2022/11/09 10:56:05;;;;;;;12.13;3.20;;;;;;;;;;5068907;28;20059;-63
2022/11/09 10:58:32;;;;;;;10.90;2.92;;;;;;;;;;5070325;28;20054;-62
2022/11/09 11:00:59;;;;;;;13.73;3.30;;;;;;;;;;5070060;28;20131;-63
2022/11/09 11:03:25;;;;;;;9.43;3.27;;;;;;;;;;5069631;28;20498;-63
2022/11/09 11:05:58;;;;;;;11.47;2.23;;;;;;;;;;5070013;28;21089;-63
2022/11/09 11:08:30;;;;;;;11.77;2.90;;;;;;;;;;5070149;28;20051;-63
2022/11/09 11:11:08;;;;;;;10.73;3.87;;;;;;;;;;5069941;28;20055;-63
2022/11/09 11:13:34;;;;;;;7.47;2.13;;;;;;;;;;5069633;28;20059;-63
2022/11/09 11:16:00;;;;;;;10.27;2.60;;;;;;;;;;5070234;28;20045;-63
2022/11/09 11:18:26;;;;;;;7.83;2.47;;;;;;;;;;5069267;28;20608;-63
2022/11/09 11:21:07;;;;;;;11.93;2.20;;;;;;;;;;5069604;28;20410;-62
2022/11/09 11:23:35;;;;;;;10.63;2.40;;;;;;;;;;5069596;28;20406;-63
2022/11/09 11:26:20;;;;;;;9.87;2.23;;;;;;;;;;5067807;28;20084;-62
2022/11/09 11:28:51;;;;;;;11.60;2.90;;;;;;;;;;5069594;28;20456;-63
2022/11/09 11:31:18;;;;;;;10.60;2.43;;;;;;;;;;5069714;28;20045;-62
2022/11/09 11:33:44;;;;;;;13.23;2.30;;;;;;;;;;5069706;28;20122;-63
2022/11/09 11:36:16;;;;;;;14.73;2.57;;;;;;;;;;5068867;28;20506;-62
2022/11/09 11:38:42;;;;;;;12.70;2.53;;;;;;;;;;5069359;28;20094;-62
2022/11/09 11:41:18;;;;;;;11.30;2.77;;;;;;;;;;5067998;28;20052;-62
2022/11/09 11:43:54;;;;;;;14.70;2.73;;;;;;;;;;5069327;28;20053;-62
2022/11/09 11:46:39;;;;;;;14.87;2.93;;;;;;;;;;5068947;28;20048;-62
2022/11/09 11:49:24;;;;;;;12.27;2.33;;;;;;;;;;5069288;28;20251;-63
2022/11/09 11:51:58;;;;;;;19.43;4.40;;;;;;;;;;5067364;28;20045;-63
2022/11/09 11:54:37;;;;;;;11.87;2.50;;;;;;;;;;5069423;28;20266;-63
2022/11/09 11:57:14;;;;;;;8.67;2.57;;;;;;;;;;5069074;28;20150;-63
2022/11/09 11:59:43;;;;;;;7.73;2.00;;;;;;;;;;5068892;28;20051;-62
2022/11/09 12:02:35;;;;;;;7.87;2.37;;;;;;;;;;5068555;28;20044;-62
2022/11/09 12:05:23;;;;;;;19.33;3.40;;;;;;;;;;5062232;28;20096;-62
2022/11/09 12:07:49;;;;;;;10.77;2.23;;;;;;;;;;5057195;28;20131;-63
2022/11/09 12:10:15;;;;;;;11.13;2.40;;;;;;;;;;5064763;28;20475;-63
2022/11/09 12:12:44;;;;;;;9.07;1.90;;;;;;;;;;5066488;28;20059;-62
2022/11/09 12:15:39;;;;;;;8.23;2.13;;;;;;;;;;5066110;28;20412;-62
2022/11/09 12:18:05;;;;;;;14.50;2.70;;;;;;;;;;5058928;28;20475;-63
2022/11/09 12:20:42;;;;;;;8.00;2.13;;;;;;;;;;5067918;28;20075;-62
2022/11/09 12:23:27;;;;;;;12.47;2.70;;;;;;;;;;5067196;28;20040;-62
2022/11/09 12:25:53;;;;;;;8.27;2.00;;;;;;;;;;5062165;28;20048;-62
2022/11/09 12:28:28;;;;;;;9.73;1.87;;;;;;;;;;5061460;28;20491;-63
2022/11/09 12:31:01;;;;;;;5.73;1.83;;;;;;;;;;5048258;28;20452;-63
2022/11/09 12:33:35;;;;;;;9.27;2.15;;;;;;;;;;5064615;28;20602;-63
2022/11/09 12:36:01;;;;;;;;;;;;;;;;;;5048379;28;20133;-62
2022/11/09 12:38:30;;;;;;;10.73;2.23;;;;;;;;;;5063896;28;20010;-63
2022/11/09 12:41:09;;;;;;;10.00;1.77;;;;;;;;;;5065407;28;20164;-62
2022/11/09 12:43:54;;;;;;;6.43;1.90;;;;;;;;;;5048333;28;20045;-62
2022/11/09 12:46:24;;;;;;;9.80;2.17;;;;;;;;;;5058176;28;20068;-62
2022/11/09 12:48:50;;;;;;;7.77;2.03;;;;;;;;;;5048400;28;20041;-63
2022/11/09 12:51:16;;;;;;;8.40;1.80;;;;;;;;;;5048214;28;20041;-62
2022/11/09 12:53:42;;;;;;;9.67;1.70;;;;;;;;;;5048277;28;20045;-62
2022/11/09 12:56:37;;;;;;;6.77;1.73;;;;;;;;;;5048056;28;20040;-63
2022/11/09 12:59:20;;;;;;;10.70;1.63;;;;;;;;;;5043084;28;20052;-63
2022/11/09 13:01:49;;;;;;;9.07;1.70;;;;;;;;;;5061183;28;20060;-62
2022/11/09 13:04:18;;;;;;;5.90;1.90;;;;;;;;;;5068080;28;20052;-62
2022/11/09 13:07:03;;;;;;;10.07;2.80;;;;;;;;;;5067883;28;20509;-63
2022/11/09 13:09:30;;;;;;;6.23;1.33;;;;;;;;;;5068171;28;20044;-63
2022/11/09 13:11:56;;;;;;;4.37;1.40;;;;;;;;;;5052932;28;20554;-62
2022/11/09 13:14:22;;;;;;;8.73;1.80;;;;;;;;;;5055661;28;20538;-63
2022/11/09 13:16:49;;;;;;;6.77;1.80;;;;;;;;;;5055839;28;20143;-63
2022/11/09 13:19:33;;;;;;;5.33;1.57;;;;;;;;;;5048157;28;20442;-63
2022/11/09 13:22:00;;;;;;;5.90;1.47;;;;;;;;;;5050511;28;20041;-63
2022/11/09 13:24:46;;;;;;;4.20;1.00;;;;;;;;;;5067530;28;20059;-63
2022/11/09 13:27:32;;;;;;;6.00;1.40;;;;;;;;;;5044527;28;20526;-63
2022/11/09 13:29:59;;;;;;;5.73;1.23;;;;;;;;;;5047598;28;20052;-63
2022/11/09 13:32:30;;;;;;;4.10;1.00;;;;;;;;;;5048130;28;20045;-63
2022/11/09 13:35:03;;;;;;;3.53;0.70;;;;;;;;;;5054465;28;20078;-63
2022/11/09 13:37:35;;;;;;;5.37;1.57;;;;;;;;;;5067957;28;20169;-63
2022/11/09 13:40:02;;;;;;;3.80;1.00;;;;;;;;;;5068093;28;20044;-63
2022/11/09 13:42:30;;;;;;;4.07;0.90;;;;;;;;;;5060341;28;20501;-63
2022/11/09 13:45:15;;;;;;;5.70;0.93;;;;;;;;;;5047233;28;20518;-63
2022/11/09 13:47:49;;;;;;;6.97;1.00;;;;;;;;;;5047709;28;20052;-62
2022/11/09 13:50:19;;;;;;;6.70;1.47;;;;;;;;;;5048846;28;20045;-63
2022/11/09 13:52:50;;;;;;;6.03;1.77;;;;;;;;;;5047413;28;20045;-63
2022/11/09 13:55:25;;;;;;;7.97;1.93;;;;;;;;;;5046858;28;20522;-62
2022/11/09 13:57:53;;;;;;;7.90;1.20;;;;;;;;;;5047534;28;20461;-62
2022/11/09 14:00:22;;;;;;;4.87;1.50;;;;;;;;;;5047408;28;20045;-62
2022/11/09 14:02:55;;;;;;;5.67;1.77;;;;;;;;;;5063442;28;20136;-63
2022/11/09 14:05:27;;;;;;;8.73;1.95;;;;;;;;;;5065442;28;20050;-62
2022/11/09 14:07:54;;;;;;;5.13;1.53;;;;;;;;;;5056511;28;20155;-62
2022/11/09 14:10:43;;;;;;;4.53;1.50;;;;;;;;;;5051407;28;20037;-63
2022/11/09 14:13:12;;;;;;;8.50;1.93;;;;;;;;;;5051257;28;20059;-62
2022/11/09 14:15:52;;;;;;;12.00;1.93;;;;;;;;;;5051697;28;20045;-63
2022/11/09 14:18:32;;;;;;;7.87;1.10;;;;;;;;;;5051457;28;20041;-63
2022/11/09 14:21:17;;;;;;;5.83;1.60;;;;;;;;;;5051956;28;20170;-63
2022/11/09 14:23:43;;;;;;;6.63;2.00;;;;;;;;;;5070114;28;20524;-62
2022/11/09 14:26:15;;;;;;;6.33;2.00;;;;;;;;;;5070932;28;20048;-62
2022/11/09 14:28:41;;;;;;;6.47;2.03;;;;;;;;;;5070584;28;20399;-63
2022/11/09 14:31:23;;;;;;;7.13;1.70;;;;;;;;;;5050755;28;20048;-62
2022/11/09 14:34:02;;;;;;;4.07;1.50;;;;;;;;;;5050838;28;20045;-63
2022/11/09 14:36:29;;;;;;;11.90;2.27;;;;;;;;;;5050255;28;20060;-63
2022/11/09 14:38:57;;;;;;;5.60;1.90;;;;;;;;;;5057893;28;20135;-63
2022/11/09 14:41:24;;;;;;;6.60;1.80;;;;;;;;;;5070756;28;20487;-63
2022/11/09 14:43:51;;;;;;;8.50;1.93;;;;;;;;;;5054546;28;20491;-63
2022/11/09 14:46:22;;;;;;;6.57;1.77;;;;;;;;;;5049067;28;20399;-63
2022/11/09 14:48:56;;;;;;;5.40;1.77;;;;;;;;;;5052550;28;20048;-63
2022/11/09 14:51:22;;;;;;;;;;;;;;;;;;5051668;28;20043;-63
2022/11/09 14:53:49;;;;;;;5.70;1.73;;;;;;;;;;5054764;28;19924;-62